sensor_id;sensor_type;location;lat;lon;timestamp;P1;durP1;ratioP1;P2;durP2;ratioP2
21010;SDS011;10663;42.714;23.274;2022-10-17T00:01:26;15.93;;;12.02;;
21010;SDS011;10663;42.714;23.274;2022-10-17T00:02:57;18.02;;;12.90;;
21010;SDS011;10663;42.714;23.274;2022-10-17T00:04:27;20.83;;;13.30;;
21010;SDS011;10663;42.714;23.274;2022-10-17T00:05:58;19.93;;;12.73;;
21010;SDS011;10663;42.714;23.274;2022-10-17T00:07:35;17.23;;;13.35;;
21010;SDS011;10663;42.714;23.274;2022-10-17T00:09:06;20.20;;;13.80;;
21010;SDS011;10663;42.714;23.274;2022-10-17T00:10:37;16.92;;;12.65;;
21010;SDS011;10663;42.714;23.274;2022-10-17T00:12:08;17.50;;;13.02;;
21010;SDS011;10663;42.714;23.274;2022-10-17T00:13:39;17.83;;;12.80;;
21010;SDS011;10663;42.714;23.274;2022-10-17T00:15:13;18.27;;;13.50;;
21010;SDS011;10663;42.714;23.274;2022-10-17T00:16:46;17.35;;;13.40;;
21010;SDS011;10663;42.714;23.274;2022-10-17T00:18:17;18.07;;;13.07;;
21010;SDS011;10663;42.714;23.274;2022-10-17T00:19:48;18.00;;;13.50;;
21010;SDS011;10663;42.714;23.274;2022-10-17T00:21:19;17.92;;;12.93;;
21010;SDS011;10663;42.714;23.274;2022-10-17T00:22:50;18.08;;;12.65;;
21010;SDS011;10663;42.714;23.274;2022-10-17T00:24:21;17.70;;;13.13;;
21010;SDS011;10663;42.714;23.274;2022-10-17T00:25:59;18.98;;;12.95;;
21010;SDS011;10663;42.714;23.274;2022-10-17T00:27:38;17.33;;;12.55;;
21010;SDS011;10663;42.714;23.274;2022-10-17T00:29:10;17.02;;;12.95;;
21010;SDS011;10663;42.714;23.274;2022-10-17T00:30:41;17.73;;;12.85;;
21010;SDS011;10663;42.714;23.274;2022-10-17T00:32:12;16.85;;;12.15;;
21010;SDS011;10663;42.714;23.274;2022-10-17T00:33:43;15.77;;;11.90;;
21010;SDS011;10663;42.714;23.274;2022-10-17T00:35:14;18.02;;;12.77;;
21010;SDS011;10663;42.714;23.274;2022-10-17T00:36:45;18.50;;;13.55;;
21010;SDS011;10663;42.714;23.274;2022-10-17T00:38:16;19.48;;;14.10;;
21010;SDS011;10663;42.714;23.274;2022-10-17T00:39:47;18.00;;;13.05;;
21010;SDS011;10663;42.714;23.274;2022-10-17T00:41:19;18.60;;;13.40;;
21010;SDS011;10663;42.714;23.274;2022-10-17T00:42:51;19.45;;;13.70;;
21010;SDS011;10663;42.714;23.274;2022-10-17T00:45:59;18.30;;;13.10;;
21010;SDS011;10663;42.714;23.274;2022-10-17T00:47:30;18.08;;;13.10;;
21010;SDS011;10663;42.714;23.274;2022-10-17T00:49:03;17.30;;;11.90;;
21010;SDS011;10663;42.714;23.274;2022-10-17T00:50:38;17.08;;;12.20;;
21010;SDS011;10663;42.714;23.274;2022-10-17T00:52:13;15.77;;;11.52;;
21010;SDS011;10663;42.714;23.274;2022-10-17T00:53:46;14.43;;;11.23;;
21010;SDS011;10663;42.714;23.274;2022-10-17T00:55:22;14.77;;;10.68;;
21010;SDS011;10663;42.714;23.274;2022-10-17T00:56:59;17.23;;;11.30;;
21010;SDS011;10663;42.714;23.274;2022-10-17T00:58:30;14.73;;;11.10;;
21010;SDS011;10663;42.714;23.274;2022-10-17T01:00:05;15.20;;;11.45;;
21010;SDS011;10663;42.714;23.274;2022-10-17T01:01:39;18.80;;;12.50;;
21010;SDS011;10663;42.714;23.274;2022-10-17T01:03:12;17.80;;;12.60;;
21010;SDS011;10663;42.714;23.274;2022-10-17T01:04:45;17.73;;;12.35;;
21010;SDS011;10663;42.714;23.274;2022-10-17T01:06:18;18.02;;;13.02;;
21010;SDS011;10663;42.714;23.274;2022-10-17T01:07:49;20.35;;;13.90;;
21010;SDS011;10663;42.714;23.274;2022-10-17T01:09:23;15.57;;;12.07;;
21010;SDS011;10663;42.714;23.274;2022-10-17T01:16:18;17.17;;;12.70;;
21010;SDS011;10663;42.714;23.274;2022-10-17T01:18:11;18.13;;;14.27;;
21010;SDS011;10663;42.714;23.274;2022-10-17T01:21:59;17.02;;;12.75;;
21010;SDS011;10663;42.714;23.274;2022-10-17T01:26:18;17.85;;;13.23;;
21010;SDS011;10663;42.714;23.274;2022-10-17T01:29:37;18.98;;;12.85;;
21010;SDS011;10663;42.714;23.274;2022-10-17T01:31:16;18.98;;;13.27;;
21010;SDS011;10663;42.714;23.274;2022-10-17T01:34:59;19.98;;;13.43;;
21010;SDS011;10663;42.714;23.274;2022-10-17T01:38:33;19.83;;;14.20;;
21010;SDS011;10663;42.714;23.274;2022-10-17T01:40:19;18.80;;;13.10;;
21010;SDS011;10663;42.714;23.274;2022-10-17T01:42:02;19.42;;;13.23;;
21010;SDS011;10663;42.714;23.274;2022-10-17T01:43:50;19.60;;;13.35;;
21010;SDS011;10663;42.714;23.274;2022-10-17T01:45:40;19.20;;;13.77;;
21010;SDS011;10663;42.714;23.274;2022-10-17T01:47:35;20.07;;;13.80;;
21010;SDS011;10663;42.714;23.274;2022-10-17T01:49:08;21.17;;;14.63;;
21010;SDS011;10663;42.714;23.274;2022-10-17T01:50:41;21.67;;;13.60;;
21010;SDS011;10663;42.714;23.274;2022-10-17T01:52:18;17.02;;;12.63;;
21010;SDS011;10663;42.714;23.274;2022-10-17T01:53:56;15.77;;;11.30;;
21010;SDS011;10663;42.714;23.274;2022-10-17T01:55:32;18.88;;;12.38;;
21010;SDS011;10663;42.714;23.274;2022-10-17T01:57:07;18.45;;;12.45;;
21010;SDS011;10663;42.714;23.274;2022-10-17T01:58:46;19.83;;;12.70;;
21010;SDS011;10663;42.714;23.274;2022-10-17T02:00:22;19.75;;;13.43;;
21010;SDS011;10663;42.714;23.274;2022-10-17T02:01:56;19.73;;;14.03;;
21010;SDS011;10663;42.714;23.274;2022-10-17T02:03:28;18.35;;;13.85;;
21010;SDS011;10663;42.714;23.274;2022-10-17T02:05:01;19.50;;;13.55;;
21010;SDS011;10663;42.714;23.274;2022-10-17T02:06:33;16.95;;;13.18;;
21010;SDS011;10663;42.714;23.274;2022-10-17T02:08:12;17.45;;;12.73;;
21010;SDS011;10663;42.714;23.274;2022-10-17T02:09:44;19.50;;;12.52;;
21010;SDS011;10663;42.714;23.274;2022-10-17T02:12:58;18.77;;;11.98;;
21010;SDS011;10663;42.714;23.274;2022-10-17T02:18:39;17.45;;;12.50;;
21010;SDS011;10663;42.714;23.274;2022-10-17T02:20:39;17.65;;;12.63;;
21010;SDS011;10663;42.714;23.274;2022-10-17T02:25:53;18.73;;;12.88;;
21010;SDS011;10663;42.714;23.274;2022-10-17T02:28:05;17.02;;;13.02;;
21010;SDS011;10663;42.714;23.274;2022-10-17T02:29:45;21.35;;;13.48;;
21010;SDS011;10663;42.714;23.274;2022-10-17T02:31:21;19.50;;;13.57;;
21010;SDS011;10663;42.714;23.274;2022-10-17T02:32:59;17.23;;;13.15;;
21010;SDS011;10663;42.714;23.274;2022-10-17T02:34:37;19.05;;;13.00;;
21010;SDS011;10663;42.714;23.274;2022-10-17T02:36:13;17.65;;;13.30;;
21010;SDS011;10663;42.714;23.274;2022-10-17T02:37:48;20.23;;;13.55;;
21010;SDS011;10663;42.714;23.274;2022-10-17T02:39:21;19.77;;;13.93;;
21010;SDS011;10663;42.714;23.274;2022-10-17T02:40:54;20.00;;;13.57;;
21010;SDS011;10663;42.714;23.274;2022-10-17T02:42:26;18.52;;;13.15;;
21010;SDS011;10663;42.714;23.274;2022-10-17T02:44:00;17.00;;;12.77;;
21010;SDS011;10663;42.714;23.274;2022-10-17T02:45:34;17.90;;;13.18;;
21010;SDS011;10663;42.714;23.274;2022-10-17T02:47:15;17.80;;;13.35;;
21010;SDS011;10663;42.714;23.274;2022-10-17T02:48:59;17.75;;;12.70;;
21010;SDS011;10663;42.714;23.274;2022-10-17T02:50:48;16.10;;;11.20;;
21010;SDS011;10663;42.714;23.274;2022-10-17T02:52:44;15.05;;;11.55;;
21010;SDS011;10663;42.714;23.274;2022-10-17T02:54:27;16.30;;;11.07;;
21010;SDS011;10663;42.714;23.274;2022-10-17T02:56:02;17.33;;;11.88;;
21010;SDS011;10663;42.714;23.274;2022-10-17T02:57:39;15.68;;;12.02;;
21010;SDS011;10663;42.714;23.274;2022-10-17T02:59:18;14.57;;;11.38;;
21010;SDS011;10663;42.714;23.274;2022-10-17T03:00:51;16.20;;;12.15;;
21010;SDS011;10663;42.714;23.274;2022-10-17T03:02:23;15.18;;;11.38;;
21010;SDS011;10663;42.714;23.274;2022-10-17T03:04:06;19.43;;;13.03;;
21010;SDS011;10663;42.714;23.274;2022-10-17T03:05:38;16.27;;;11.77;;
21010;SDS011;10663;42.714;23.274;2022-10-17T03:07:09;16.80;;;12.93;;
21010;SDS011;10663;42.714;23.274;2022-10-17T03:08:40;15.87;;;12.27;;
21010;SDS011;10663;42.714;23.274;2022-10-17T03:10:12;17.33;;;12.50;;
21010;SDS011;10663;42.714;23.274;2022-10-17T03:11:43;16.42;;;11.70;;
21010;SDS011;10663;42.714;23.274;2022-10-17T03:13:15;16.77;;;11.55;;
21010;SDS011;10663;42.714;23.274;2022-10-17T03:14:46;16.08;;;11.48;;
21010;SDS011;10663;42.714;23.274;2022-10-17T03:16:17;15.00;;;11.45;;
21010;SDS011;10663;42.714;23.274;2022-10-17T03:17:48;13.68;;;11.25;;
21010;SDS011;10663;42.714;23.274;2022-10-17T03:19:20;13.98;;;11.18;;
21010;SDS011;10663;42.714;23.274;2022-10-17T03:20:51;16.77;;;11.50;;
21010;SDS011;10663;42.714;23.274;2022-10-17T03:22:22;14.57;;;11.07;;
21010;SDS011;10663;42.714;23.274;2022-10-17T03:23:53;13.35;;;10.85;;
21010;SDS011;10663;42.714;23.274;2022-10-17T03:25:26;14.63;;;10.63;;
21010;SDS011;10663;42.714;23.274;2022-10-17T03:26:57;14.20;;;10.43;;
21010;SDS011;10663;42.714;23.274;2022-10-17T03:28:28;13.95;;;10.77;;
21010;SDS011;10663;42.714;23.274;2022-10-17T03:29:59;16.48;;;10.98;;
21010;SDS011;10663;42.714;23.274;2022-10-17T03:31:30;14.45;;;10.60;;
21010;SDS011;10663;42.714;23.274;2022-10-17T03:33:03;14.77;;;11.40;;
21010;SDS011;10663;42.714;23.274;2022-10-17T03:34:34;14.77;;;11.88;;
21010;SDS011;10663;42.714;23.274;2022-10-17T03:36:09;14.93;;;10.93;;
21010;SDS011;10663;42.714;23.274;2022-10-17T03:37:41;17.83;;;11.67;;
21010;SDS011;10663;42.714;23.274;2022-10-17T03:39:14;15.80;;;12.23;;
21010;SDS011;10663;42.714;23.274;2022-10-17T03:40:53;16.50;;;11.95;;
21010;SDS011;10663;42.714;23.274;2022-10-17T03:42:25;16.57;;;11.90;;
21010;SDS011;10663;42.714;23.274;2022-10-17T03:43:56;15.97;;;11.30;;
21010;SDS011;10663;42.714;23.274;2022-10-17T03:45:27;15.65;;;11.32;;
21010;SDS011;10663;42.714;23.274;2022-10-17T03:46:59;15.50;;;10.77;;
21010;SDS011;10663;42.714;23.274;2022-10-17T03:48:30;14.48;;;11.35;;
21010;SDS011;10663;42.714;23.274;2022-10-17T03:50:03;15.43;;;11.32;;
21010;SDS011;10663;42.714;23.274;2022-10-17T03:51:37;14.00;;;11.07;;
21010;SDS011;10663;42.714;23.274;2022-10-17T03:53:12;16.42;;;12.13;;
21010;SDS011;10663;42.714;23.274;2022-10-17T03:54:43;16.73;;;12.20;;
21010;SDS011;10663;42.714;23.274;2022-10-17T03:56:15;17.50;;;13.10;;
21010;SDS011;10663;42.714;23.274;2022-10-17T03:57:58;17.48;;;12.85;;
21010;SDS011;10663;42.714;23.274;2022-10-17T03:59:29;15.45;;;11.80;;
21010;SDS011;10663;42.714;23.274;2022-10-17T04:01:09;17.58;;;13.02;;
21010;SDS011;10663;42.714;23.274;2022-10-17T04:02:42;17.30;;;12.30;;
21010;SDS011;10663;42.714;23.274;2022-10-17T04:04:20;15.93;;;12.55;;
21010;SDS011;10663;42.714;23.274;2022-10-17T04:05:51;16.67;;;12.90;;
21010;SDS011;10663;42.714;23.274;2022-10-17T04:07:21;15.07;;;10.13;;
21010;SDS011;10663;42.714;23.274;2022-10-17T04:08:52;15.97;;;11.63;;
21010;SDS011;10663;42.714;23.274;2022-10-17T04:10:31;17.63;;;11.52;;
21010;SDS011;10663;42.714;23.274;2022-10-17T04:12:02;15.73;;;12.20;;
21010;SDS011;10663;42.714;23.274;2022-10-17T04:13:35;15.98;;;11.40;;
21010;SDS011;10663;42.714;23.274;2022-10-17T04:15:06;17.00;;;12.32;;
21010;SDS011;10663;42.714;23.274;2022-10-17T04:16:39;14.67;;;10.77;;
21010;SDS011;10663;42.714;23.274;2022-10-17T04:18:15;16.25;;;11.32;;
21010;SDS011;10663;42.714;23.274;2022-10-17T04:19:47;17.35;;;12.82;;
21010;SDS011;10663;42.714;23.274;2022-10-17T04:21:21;16.20;;;12.13;;
21010;SDS011;10663;42.714;23.274;2022-10-17T04:22:54;14.48;;;11.52;;
21010;SDS011;10663;42.714;23.274;2022-10-17T04:24:25;14.35;;;11.00;;
21010;SDS011;10663;42.714;23.274;2022-10-17T04:25:58;17.48;;;11.80;;
21010;SDS011;10663;42.714;23.274;2022-10-17T04:27:31;16.13;;;12.00;;
21010;SDS011;10663;42.714;23.274;2022-10-17T04:29:02;13.90;;;10.98;;
21010;SDS011;10663;42.714;23.274;2022-10-17T04:30:33;16.25;;;11.90;;
21010;SDS011;10663;42.714;23.274;2022-10-17T04:32:03;17.55;;;11.70;;
21010;SDS011;10663;42.714;23.274;2022-10-17T04:33:41;16.42;;;11.50;;
21010;SDS011;10663;42.714;23.274;2022-10-17T04:35:14;17.63;;;14.48;;
21010;SDS011;10663;42.714;23.274;2022-10-17T04:36:49;18.67;;;14.20;;
21010;SDS011;10663;42.714;23.274;2022-10-17T04:38:21;16.27;;;13.30;;
21010;SDS011;10663;42.714;23.274;2022-10-17T04:39:53;20.17;;;15.53;;
21010;SDS011;10663;42.714;23.274;2022-10-17T04:41:24;33.57;;;23.70;;
21010;SDS011;10663;42.714;23.274;2022-10-17T04:42:55;21.38;;;14.88;;
21010;SDS011;10663;42.714;23.274;2022-10-17T04:44:33;25.08;;;17.95;;
21010;SDS011;10663;42.714;23.274;2022-10-17T04:46:09;28.13;;;20.02;;
21010;SDS011;10663;42.714;23.274;2022-10-17T04:47:42;26.98;;;19.65;;
21010;SDS011;10663;42.714;23.274;2022-10-17T04:49:13;25.80;;;20.17;;
21010;SDS011;10663;42.714;23.274;2022-10-17T04:50:53;23.35;;;16.23;;
21010;SDS011;10663;42.714;23.274;2022-10-17T04:52:43;18.30;;;13.13;;
21010;SDS011;10663;42.714;23.274;2022-10-17T04:54:14;19.35;;;14.05;;
21010;SDS011;10663;42.714;23.274;2022-10-17T04:55:47;20.45;;;14.60;;
21010;SDS011;10663;42.714;23.274;2022-10-17T04:57:18;23.27;;;15.90;;
21010;SDS011;10663;42.714;23.274;2022-10-17T04:59:07;21.23;;;15.52;;
21010;SDS011;10663;42.714;23.274;2022-10-17T05:00:41;19.80;;;14.37;;
21010;SDS011;10663;42.714;23.274;2022-10-17T05:02:22;24.08;;;17.08;;
21010;SDS011;10663;42.714;23.274;2022-10-17T05:03:53;19.75;;;14.70;;
21010;SDS011;10663;42.714;23.274;2022-10-17T05:05:27;21.63;;;15.77;;
21010;SDS011;10663;42.714;23.274;2022-10-17T05:06:59;19.70;;;15.50;;
21010;SDS011;10663;42.714;23.274;2022-10-17T05:08:44;19.30;;;14.43;;
21010;SDS011;10663;42.714;23.274;2022-10-17T05:10:15;18.63;;;13.02;;
21010;SDS011;10663;42.714;23.274;2022-10-17T05:11:49;17.40;;;13.20;;
21010;SDS011;10663;42.714;23.274;2022-10-17T05:13:21;18.52;;;13.55;;
21010;SDS011;10663;42.714;23.274;2022-10-17T05:14:51;18.67;;;12.43;;
21010;SDS011;10663;42.714;23.274;2022-10-17T05:16:22;17.55;;;13.32;;
21010;SDS011;10663;42.714;23.274;2022-10-17T05:17:55;19.23;;;13.25;;
21010;SDS011;10663;42.714;23.274;2022-10-17T05:19:31;16.63;;;12.65;;
21010;SDS011;10663;42.714;23.274;2022-10-17T05:21:03;17.52;;;12.80;;
21010;SDS011;10663;42.714;23.274;2022-10-17T05:22:34;20.13;;;14.35;;
21010;SDS011;10663;42.714;23.274;2022-10-17T05:24:05;19.95;;;13.80;;
21010;SDS011;10663;42.714;23.274;2022-10-17T05:25:38;17.48;;;13.55;;
21010;SDS011;10663;42.714;23.274;2022-10-17T05:27:09;25.95;;;16.20;;
21010;SDS011;10663;42.714;23.274;2022-10-17T05:28:39;23.17;;;16.27;;
21010;SDS011;10663;42.714;23.274;2022-10-17T05:30:11;32.22;;;21.33;;
21010;SDS011;10663;42.714;23.274;2022-10-17T05:31:43;26.00;;;17.33;;
21010;SDS011;10663;42.714;23.274;2022-10-17T05:33:14;23.73;;;16.13;;
21010;SDS011;10663;42.714;23.274;2022-10-17T05:34:45;22.70;;;16.83;;
21010;SDS011;10663;42.714;23.274;2022-10-17T05:36:16;31.02;;;19.52;;
21010;SDS011;10663;42.714;23.274;2022-10-17T05:37:48;33.47;;;19.70;;
21010;SDS011;10663;42.714;23.274;2022-10-17T05:39:20;28.38;;;18.67;;
21010;SDS011;10663;42.714;23.274;2022-10-17T05:40:57;26.98;;;17.88;;
21010;SDS011;10663;42.714;23.274;2022-10-17T05:42:29;26.10;;;17.75;;
21010;SDS011;10663;42.714;23.274;2022-10-17T05:44:00;30.65;;;18.90;;
21010;SDS011;10663;42.714;23.274;2022-10-17T05:45:43;27.67;;;19.60;;
21010;SDS011;10663;42.714;23.274;2022-10-17T05:47:22;31.63;;;20.00;;
21010;SDS011;10663;42.714;23.274;2022-10-17T05:48:53;31.75;;;22.30;;
21010;SDS011;10663;42.714;23.274;2022-10-17T05:50:25;30.77;;;23.55;;
21010;SDS011;10663;42.714;23.274;2022-10-17T05:52:10;32.22;;;24.98;;
21010;SDS011;10663;42.714;23.274;2022-10-17T05:53:55;29.17;;;20.60;;
21010;SDS011;10663;42.714;23.274;2022-10-17T05:55:30;30.52;;;21.60;;
21010;SDS011;10663;42.714;23.274;2022-10-17T05:57:01;27.20;;;21.90;;
21010;SDS011;10663;42.714;23.274;2022-10-17T05:58:35;36.00;;;25.33;;
21010;SDS011;10663;42.714;23.274;2022-10-17T06:00:10;33.95;;;25.42;;
21010;SDS011;10663;42.714;23.274;2022-10-17T06:01:45;34.53;;;26.90;;
21010;SDS011;10663;42.714;23.274;2022-10-17T06:03:16;33.90;;;26.50;;
21010;SDS011;10663;42.714;23.274;2022-10-17T06:04:47;34.30;;;28.03;;
21010;SDS011;10663;42.714;23.274;2022-10-17T06:06:19;33.50;;;28.23;;
21010;SDS011;10663;42.714;23.274;2022-10-17T06:07:51;37.85;;;29.75;;
21010;SDS011;10663;42.714;23.274;2022-10-17T06:09:23;31.55;;;25.80;;
21010;SDS011;10663;42.714;23.274;2022-10-17T06:10:57;36.47;;;28.20;;
21010;SDS011;10663;42.714;23.274;2022-10-17T06:12:28;23.33;;;20.17;;
21010;SDS011;10663;42.714;23.274;2022-10-17T06:13:58;21.15;;;17.98;;
21010;SDS011;10663;42.714;23.274;2022-10-17T06:15:32;25.65;;;19.27;;
21010;SDS011;10663;42.714;23.274;2022-10-17T06:17:07;23.83;;;19.90;;
21010;SDS011;10663;42.714;23.274;2022-10-17T06:18:38;24.90;;;19.80;;
21010;SDS011;10663;42.714;23.274;2022-10-17T06:20:09;25.20;;;19.42;;
21010;SDS011;10663;42.714;23.274;2022-10-17T06:21:40;27.60;;;19.83;;
21010;SDS011;10663;42.714;23.274;2022-10-17T06:23:15;27.00;;;21.65;;
21010;SDS011;10663;42.714;23.274;2022-10-17T06:25:12;26.75;;;21.35;;
21010;SDS011;10663;42.714;23.274;2022-10-17T06:26:45;27.40;;;20.23;;
21010;SDS011;10663;42.714;23.274;2022-10-17T06:28:18;30.15;;;21.83;;
21010;SDS011;10663;42.714;23.274;2022-10-17T06:29:49;27.60;;;21.38;;
21010;SDS011;10663;42.714;23.274;2022-10-17T06:31:21;31.45;;;22.13;;
21010;SDS011;10663;42.714;23.274;2022-10-17T06:32:52;36.40;;;24.33;;
21010;SDS011;10663;42.714;23.274;2022-10-17T06:34:23;36.78;;;23.80;;
21010;SDS011;10663;42.714;23.274;2022-10-17T06:35:55;31.88;;;21.50;;
21010;SDS011;10663;42.714;23.274;2022-10-17T06:37:31;30.13;;;20.73;;
21010;SDS011;10663;42.714;23.274;2022-10-17T06:39:03;30.48;;;19.98;;
21010;SDS011;10663;42.714;23.274;2022-10-17T06:40:41;31.23;;;21.03;;
21010;SDS011;10663;42.714;23.274;2022-10-17T06:42:12;28.67;;;20.30;;
21010;SDS011;10663;42.714;23.274;2022-10-17T06:43:59;29.90;;;20.27;;
21010;SDS011;10663;42.714;23.274;2022-10-17T06:45:46;32.15;;;20.33;;
21010;SDS011;10663;42.714;23.274;2022-10-17T06:47:37;24.52;;;16.17;;
21010;SDS011;10663;42.714;23.274;2022-10-17T06:49:28;23.08;;;16.77;;
21010;SDS011;10663;42.714;23.274;2022-10-17T06:51:22;23.97;;;17.40;;
21010;SDS011;10663;42.714;23.274;2022-10-17T06:52:57;26.27;;;17.60;;
21010;SDS011;10663;42.714;23.274;2022-10-17T06:54:47;24.00;;;17.05;;
21010;SDS011;10663;42.714;23.274;2022-10-17T06:56:35;24.55;;;16.48;;
21010;SDS011;10663;42.714;23.274;2022-10-17T06:58:23;23.50;;;16.65;;
21010;SDS011;10663;42.714;23.274;2022-10-17T07:00:14;23.55;;;16.80;;
21010;SDS011;10663;42.714;23.274;2022-10-17T07:01:51;22.52;;;16.83;;
21010;SDS011;10663;42.714;23.274;2022-10-17T07:03:22;21.88;;;15.68;;
21010;SDS011;10663;42.714;23.274;2022-10-17T07:04:53;21.05;;;16.10;;
21010;SDS011;10663;42.714;23.274;2022-10-17T07:06:25;24.38;;;15.73;;
21010;SDS011;10663;42.714;23.274;2022-10-17T07:07:59;22.70;;;15.60;;
21010;SDS011;10663;42.714;23.274;2022-10-17T07:09:30;22.80;;;15.53;;
21010;SDS011;10663;42.714;23.274;2022-10-17T07:11:09;25.02;;;16.02;;
21010;SDS011;10663;42.714;23.274;2022-10-17T07:12:40;20.30;;;14.98;;
21010;SDS011;10663;42.714;23.274;2022-10-17T07:14:11;23.92;;;15.13;;
21010;SDS011;10663;42.714;23.274;2022-10-17T07:15:43;21.20;;;15.77;;
21010;SDS011;10663;42.714;23.274;2022-10-17T07:17:15;23.50;;;15.40;;
21010;SDS011;10663;42.714;23.274;2022-10-17T07:18:49;21.40;;;15.25;;
21010;SDS011;10663;42.714;23.274;2022-10-17T07:20:22;21.90;;;15.45;;
21010;SDS011;10663;42.714;23.274;2022-10-17T07:21:53;23.75;;;16.45;;
21010;SDS011;10663;42.714;23.274;2022-10-17T07:23:25;21.98;;;15.75;;
21010;SDS011;10663;42.714;23.274;2022-10-17T07:24:57;21.20;;;15.73;;
21010;SDS011;10663;42.714;23.274;2022-10-17T07:26:34;21.88;;;15.18;;
21010;SDS011;10663;42.714;23.274;2022-10-17T07:28:05;25.20;;;15.60;;
21010;SDS011;10663;42.714;23.274;2022-10-17T07:29:36;20.65;;;15.77;;
21010;SDS011;10663;42.714;23.274;2022-10-17T07:31:27;19.83;;;15.02;;
21010;SDS011;10663;42.714;23.274;2022-10-17T07:32:58;20.48;;;15.57;;
21010;SDS011;10663;42.714;23.274;2022-10-17T07:34:29;20.50;;;15.10;;
21010;SDS011;10663;42.714;23.274;2022-10-17T07:36:01;20.05;;;15.30;;
21010;SDS011;10663;42.714;23.274;2022-10-17T07:37:33;23.33;;;17.35;;
21010;SDS011;10663;42.714;23.274;2022-10-17T07:39:05;24.05;;;16.55;;
21010;SDS011;10663;42.714;23.274;2022-10-17T07:40:38;21.17;;;15.85;;
21010;SDS011;10663;42.714;23.274;2022-10-17T07:42:10;22.33;;;15.60;;
21010;SDS011;10663;42.714;23.274;2022-10-17T07:43:41;23.83;;;16.52;;
21010;SDS011;10663;42.714;23.274;2022-10-17T07:45:13;21.92;;;16.20;;
21010;SDS011;10663;42.714;23.274;2022-10-17T07:46:46;21.97;;;17.00;;
21010;SDS011;10663;42.714;23.274;2022-10-17T07:48:17;23.67;;;17.27;;
21010;SDS011;10663;42.714;23.274;2022-10-17T07:49:49;23.45;;;16.25;;
21010;SDS011;10663;42.714;23.274;2022-10-17T07:51:19;23.77;;;16.30;;
21010;SDS011;10663;42.714;23.274;2022-10-17T07:52:51;24.13;;;16.95;;
21010;SDS011;10663;42.714;23.274;2022-10-17T07:54:22;25.38;;;17.27;;
21010;SDS011;10663;42.714;23.274;2022-10-17T07:55:53;22.58;;;17.05;;
21010;SDS011;10663;42.714;23.274;2022-10-17T07:57:24;20.48;;;16.33;;
21010;SDS011;10663;42.714;23.274;2022-10-17T07:58:55;25.10;;;16.80;;
21010;SDS011;10663;42.714;23.274;2022-10-17T08:00:27;24.55;;;16.30;;
21010;SDS011;10663;42.714;23.274;2022-10-17T08:01:58;22.17;;;16.85;;
21010;SDS011;10663;42.714;23.274;2022-10-17T08:03:29;20.10;;;15.77;;
21010;SDS011;10663;42.714;23.274;2022-10-17T08:05:00;24.88;;;16.58;;
21010;SDS011;10663;42.714;23.274;2022-10-17T08:06:30;21.60;;;16.25;;
21010;SDS011;10663;42.714;23.274;2022-10-17T08:08:01;23.95;;;16.10;;
21010;SDS011;10663;42.714;23.274;2022-10-17T08:09:32;21.48;;;16.48;;
21010;SDS011;10663;42.714;23.274;2022-10-17T08:11:04;31.77;;;22.17;;
21010;SDS011;10663;42.714;23.274;2022-10-17T08:12:39;24.58;;;18.05;;
21010;SDS011;10663;42.714;23.274;2022-10-17T08:14:11;30.90;;;20.73;;
21010;SDS011;10663;42.714;23.274;2022-10-17T08:15:42;28.35;;;19.73;;
21010;SDS011;10663;42.714;23.274;2022-10-17T08:17:13;22.17;;;16.48;;
21010;SDS011;10663;42.714;23.274;2022-10-17T08:18:44;27.00;;;19.30;;
21010;SDS011;10663;42.714;23.274;2022-10-17T08:20:15;31.70;;;22.50;;
21010;SDS011;10663;42.714;23.274;2022-10-17T08:21:47;23.35;;;17.85;;
21010;SDS011;10663;42.714;23.274;2022-10-17T08:23:19;24.88;;;16.45;;
21010;SDS011;10663;42.714;23.274;2022-10-17T08:24:50;22.00;;;16.42;;
21010;SDS011;10663;42.714;23.274;2022-10-17T08:26:21;25.85;;;17.48;;
21010;SDS011;10663;42.714;23.274;2022-10-17T08:27:52;26.90;;;17.83;;
21010;SDS011;10663;42.714;23.274;2022-10-17T08:29:23;24.20;;;16.73;;
21010;SDS011;10663;42.714;23.274;2022-10-17T08:32:35;23.70;;;17.58;;
21010;SDS011;10663;42.714;23.274;2022-10-17T08:34:06;23.25;;;17.38;;
21010;SDS011;10663;42.714;23.274;2022-10-17T08:35:37;23.73;;;16.55;;
21010;SDS011;10663;42.714;23.274;2022-10-17T08:37:08;22.58;;;16.45;;
21010;SDS011;10663;42.714;23.274;2022-10-17T08:38:39;22.75;;;17.00;;
21010;SDS011;10663;42.714;23.274;2022-10-17T08:40:20;23.80;;;16.13;;
21010;SDS011;10663;42.714;23.274;2022-10-17T08:45:33;20.70;;;15.75;;
21010;SDS011;10663;42.714;23.274;2022-10-17T08:47:12;22.60;;;16.13;;
21010;SDS011;10663;42.714;23.274;2022-10-17T08:48:46;21.63;;;15.32;;
21010;SDS011;10663;42.714;23.274;2022-10-17T08:50:35;22.57;;;16.10;;
21010;SDS011;10663;42.714;23.274;2022-10-17T08:52:11;19.80;;;14.50;;
21010;SDS011;10663;42.714;23.274;2022-10-17T08:54:04;20.15;;;14.68;;
21010;SDS011;10663;42.714;23.274;2022-10-17T08:55:45;18.90;;;13.70;;
21010;SDS011;10663;42.714;23.274;2022-10-17T08:57:17;23.52;;;15.93;;
21010;SDS011;10663;42.714;23.274;2022-10-17T08:58:49;18.48;;;14.57;;
21010;SDS011;10663;42.714;23.274;2022-10-17T09:00:20;21.20;;;14.85;;
21010;SDS011;10663;42.714;23.274;2022-10-17T09:07:33;15.50;;;11.52;;
21010;SDS011;10663;42.714;23.274;2022-10-17T09:12:53;17.38;;;11.82;;
21010;SDS011;10663;42.714;23.274;2022-10-17T09:16:43;15.07;;;10.63;;
21010;SDS011;10663;42.714;23.274;2022-10-17T09:18:35;13.90;;;9.75;;
21010;SDS011;10663;42.714;23.274;2022-10-17T09:20:11;15.65;;;9.68;;
21010;SDS011;10663;42.714;23.274;2022-10-17T09:21:57;13.00;;;8.52;;
21010;SDS011;10663;42.714;23.274;2022-10-17T09:23:36;13.15;;;9.00;;
21010;SDS011;10663;42.714;23.274;2022-10-17T09:25:15;12.73;;;9.32;;
21010;SDS011;10663;42.714;23.274;2022-10-17T09:26:49;13.75;;;9.73;;
21010;SDS011;10663;42.714;23.274;2022-10-17T09:28:22;11.30;;;8.55;;
21010;SDS011;10663;42.714;23.274;2022-10-17T09:32:02;12.23;;;8.77;;
21010;SDS011;10663;42.714;23.274;2022-10-17T09:33:40;11.27;;;8.82;;
21010;SDS011;10663;42.714;23.274;2022-10-17T09:35:12;9.32;;;8.07;;
21010;SDS011;10663;42.714;23.274;2022-10-17T09:36:44;15.02;;;8.40;;
21010;SDS011;10663;42.714;23.274;2022-10-17T09:38:16;12.05;;;8.10;;
21010;SDS011;10663;42.714;23.274;2022-10-17T09:39:48;12.00;;;8.07;;
21010;SDS011;10663;42.714;23.274;2022-10-17T09:43:07;9.10;;;6.45;;
21010;SDS011;10663;42.714;23.274;2022-10-17T09:44:54;8.10;;;5.88;;
21010;SDS011;10663;42.714;23.274;2022-10-17T09:46:35;11.40;;;6.18;;
21010;SDS011;10663;42.714;23.274;2022-10-17T09:48:14;10.07;;;6.05;;
21010;SDS011;10663;42.714;23.274;2022-10-17T09:49:54;11.95;;;6.72;;
21010;SDS011;10663;42.714;23.274;2022-10-17T09:51:25;10.50;;;7.15;;
21010;SDS011;10663;42.714;23.274;2022-10-17T09:53:00;9.60;;;6.55;;
21010;SDS011;10663;42.714;23.274;2022-10-17T09:56:12;9.93;;;6.80;;
21010;SDS011;10663;42.714;23.274;2022-10-17T09:57:58;9.88;;;6.13;;